Time;durP1;ratioP1;P1;durP2;ratioP2;P2;SDS_P1;SDS_P2;PMS_P1;PMS_P2;Temp;Humidity;BMP_temperature;BMP_pressure;BME280_temperature;BME280_humidity;BME280_pressure;Samples;Min_cycle;Max_cycle;Signal;HPM_P1;HPM_P2
2023/06/18 00:18:01;;;;;;;31.70;28.70;;;17.70;99.90;;;;;;4707534;29;20391;-83
2023/06/18 00:48:05;;;;;;;32.77;29.67;;;18.00;99.90;;;;;;4691614;29;20530;-81
2023/06/18 01:13:52;;;;;;;28.80;26.00;;;18.00;99.90;;;;;;4693403;29;20237;-80
2023/06/18 01:33:34;;;;;;;28.63;25.83;;;17.50;99.90;;;;;;4529103;30;21215;-86
2023/06/18 01:59:04;;;;;;;29.03;26.00;;;17.30;99.90;;;;;;4624509;29;20704;-83
2023/06/18 02:19:33;;;;;;;27.60;24.83;;;17.50;99.90;;;;;;4829303;28;21174;-82
2023/06/18 02:39:59;;;;;;;28.03;25.13;;;17.50;99.90;;;;;;4796909;28;20248;-79
2023/06/18 03:00:22;;;;;;;27.60;24.63;;;17.50;99.90;;;;;;4657583;29;20387;-82
2023/06/18 03:04:42;;;;;;;25.73;23.33;;;17.60;99.90;;;;;;4601124;29;20720;-80
2023/06/18 03:30:45;;;;;;;28.03;25.17;;;17.50;99.90;;;;;;4692098;29;20466;-79
2023/06/18 04:00:54;;;;;;;28.87;25.97;;;18.10;99.90;;;;;;4740585;29;20302;-81
2023/06/18 04:51:56;;;;;;;28.40;25.60;;;18.70;99.90;;;;;;4638286;29;20260;-80
2023/06/18 05:22:11;;;;;;;26.93;24.23;;;19.60;99.90;;;;;;4757696;29;20393;-83
2023/06/18 05:52:38;;;;;;;26.60;24.02;;;20.60;99.90;;;;;;4667094;29;20257;-83
2023/06/18 06:18:05;;;;;;;23.33;21.23;;;21.20;99.90;;;;;;4704859;29;20289;-80
2023/06/18 07:08:10;;;;;;;20.58;18.75;;;21.60;93.60;;;;;;4503332;30;20661;-86
2023/06/18 07:34:04;;;;;;;22.30;20.10;;;22.20;92.40;;;;;;4696850;29;20192;-80
2023/06/18 07:54:16;;;;;;;21.38;19.48;;;22.30;92.50;;;;;;4594017;29;20233;-82
2023/06/18 08:29:52;;;;;;;17.45;15.95;;;23.70;87.50;;;;;;4721543;29;20269;-81
2023/06/18 09:00:10;;;;;;;17.50;16.00;;;23.40;87.60;;;;;;4671283;30;20807;-85
2023/06/18 09:25:50;;;;;;;10.45;9.45;;;22.70;91.30;;;;;;4682554;29;20240;-82
2023/06/18 09:51:07;;;;;;;19.13;17.23;;;18.80;99.90;;;;;;4762257;29;20210;-84
2023/06/18 10:16:30;;;;;;;18.43;16.37;;;17.80;99.90;;;;;;4761308;29;20281;-82
2023/06/18 10:36:38;;;;;;;20.87;18.77;;;18.10;99.90;;;;;;4685668;29;20228;-81
2023/06/18 11:17:20;;;;;;;15.07;13.63;;;18.00;99.90;;;;;;4737082;29;20364;-83
2023/06/18 11:47:15;;;;;;;14.87;13.47;;;18.80;99.90;;;;;;4699740;29;20513;-85
2023/06/18 12:13:07;;;;;;;12.27;11.00;;;18.90;99.90;;;;;;4814348;29;20205;-86
2023/06/18 12:38:24;;;;;;;10.63;9.63;;;19.10;99.90;;;;;;4612184;30;20231;-83
2023/06/18 12:58:47;;;;;;;11.40;10.37;;;18.30;99.90;;;;;;4652720;29;20206;-81
2023/06/18 13:23:50;;;;;;;12.67;11.57;;;18.90;99.90;;;;;;4734267;29;20413;-80
2023/06/18 13:44:22;;;;;;;13.97;12.63;;;19.00;99.90;;;;;;4662753;29;20307;-83
2023/06/18 14:14:47;;;;;;;13.00;11.90;;;20.30;99.90;;;;;;4682273;29;20373;-83
2023/06/18 14:35:07;;;;;;;8.02;7.43;;;21.90;97.30;;;;;;4641785;30;20664;-80
2023/06/18 15:46:06;;;;;;;8.00;7.20;;;25.50;76.60;;;;;;4675744;29;20841;-81
2023/06/18 16:16:34;;;;;;;9.90;8.88;;;23.40;83.10;;;;;;4764250;29;20254;-84
2023/06/18 16:51:48;;;;;;;10.95;9.95;;;22.00;89.70;;;;;;4893963;28;20214;-82
2023/06/18 17:32:16;;;;;;;10.30;9.40;;;21.10;94.00;;;;;;4833887;29;20497;-83
2023/06/18 17:57:42;;;;;;;10.85;9.95;;;20.80;93.90;;;;;;4690078;29;20275;-83
2023/06/18 18:38:26;;;;;;;9.30;7.03;;;19.60;93.70;;;;;;4703039;29;20882;-79
2023/06/18 19:03:51;;;;;;;7.80;7.03;;;18.90;98.80;;;;;;4812201;28;20406;-82
2023/06/18 20:40:01;;;;;;;6.93;6.33;;;16.60;99.90;;;;;;4606803;29;20248;-81
2023/06/18 21:10:01;;;;;;;6.93;6.33;;;16.20;99.90;;;;;;4719792;28;20777;-80
2023/06/18 21:25:31;;;;;;;6.93;5.90;;;16.00;99.90;;;;;;4712716;29;20866;-79
2023/06/18 21:56:16;;;;;;;7.40;5.93;;;15.60;99.90;;;;;;4593615;29;21044;-82
2023/06/18 22:21:43;;;;;;;12.67;9.97;;;15.90;99.90;;;;;;4668628;29;20290;-82
2023/06/18 23:02:11;;;;;;;17.07;15.27;;;15.50;99.90;;;;;;4799015;28;20237;-84
2023/06/18 23:26:56;;;;;;;21.73;18.63;;;15.00;99.90;;;;;;4719664;29;20637;-81
2023/06/18 23:47:39;;;;;;;20.93;17.70;;;14.40;99.90;;;;;;4605783;29;21109;-83
